sensor_id;sensor_type;location;lat;lon;timestamp;pressure;altitude;pressure_sealevel;temperature;humidity
6034;BME280;3045;43.226;27.858;2023-02-01T00:00:18;146929.97;;;3.48;100.00
6034;BME280;3045;43.226;27.858;2023-02-01T00:02:46;146929.97;;;3.48;100.00
6034;BME280;3045;43.226;27.858;2023-02-01T00:05:13;146947.53;;;3.55;100.00
6034;BME280;3045;43.226;27.858;2023-02-01T00:07:40;146929.97;;;3.48;100.00
6034;BME280;3045;43.226;27.858;2023-02-01T00:10:08;146932.44;;;3.49;100.00
6034;BME280;3045;43.226;27.858;2023-02-01T00:12:35;146893.50;;;3.33;100.00
6034;BME280;3045;43.226;27.858;2023-02-01T00:15:02;146903.56;;;3.37;100.00
6034;BME280;3045;43.226;27.858;2023-02-01T00:17:29;146898.56;;;3.35;100.00
6034;BME280;3045;43.226;27.858;2023-02-01T00:19:57;146901.03;;;3.36;100.00
6034;BME280;3045;43.226;27.858;2023-02-01T00:22:24;146862.09;;;3.20;100.00
6034;BME280;3045;43.226;27.858;2023-02-01T00:24:51;146911.09;;;3.40;100.00
6034;BME280;3045;43.226;27.858;2023-02-01T00:27:18;146909.81;;;3.40;100.00
6034;BME280;3045;43.226;27.858;2023-02-01T00:29:47;146958.84;;;3.59;100.00
6034;BME280;3045;43.226;27.858;2023-02-01T00:32:14;146958.84;;;3.59;100.00
6034;BME280;3045;43.226;27.858;2023-02-01T00:34:40;146975.16;;;3.66;100.00
6034;BME280;3045;43.226;27.858;2023-02-01T00:37:09;146966.38;;;3.62;100.00
6034;BME280;3045;43.226;27.858;2023-02-01T00:39:36;146986.47;;;3.71;100.00
6034;BME280;3045;43.226;27.858;2023-02-01T00:42:03;147012.91;;;3.81;100.00
6034;BME280;3045;43.226;27.858;2023-02-01T00:44:30;146997.78;;;3.75;100.00
6034;BME280;3045;43.226;27.858;2023-02-01T00:47:00;147043.06;;;3.93;100.00
6034;BME280;3045;43.226;27.858;2023-02-01T00:49:27;147033.00;;;3.89;100.00
6034;BME280;3045;43.226;27.858;2023-02-01T00:51:53;147050.59;;;3.96;100.00
6034;BME280;3045;43.226;27.858;2023-02-01T00:54:22;147049.31;;;3.96;100.00
6034;BME280;3045;43.226;27.858;2023-02-01T00:56:49;147063.16;;;4.01;100.00
6034;BME280;3045;43.226;27.858;2023-02-01T00:59:16;147066.97;;;4.03;100.00
6034;BME280;3045;43.226;27.858;2023-02-01T01:01:43;147093.34;;;4.13;100.00
6034;BME280;3045;43.226;27.858;2023-02-01T01:04:10;147085.81;;;4.10;100.00
6034;BME280;3045;43.226;27.858;2023-02-01T01:06:37;147050.59;;;3.96;100.00
6034;BME280;3045;43.226;27.858;2023-02-01T01:09:06;147065.69;;;4.02;100.00
6034;BME280;3045;43.226;27.858;2023-02-01T01:11:36;147011.63;;;3.81;100.00
6034;BME280;3045;43.226;27.858;2023-02-01T01:14:05;146965.13;;;3.62;100.00
6034;BME280;3045;43.226;27.858;2023-02-01T01:16:33;146941.22;;;3.52;100.00
6034;BME280;3045;43.226;27.858;2023-02-01T01:19:00;146966.38;;;3.62;100.00
6034;BME280;3045;43.226;27.858;2023-02-01T01:21:28;146986.47;;;3.71;100.00
6034;BME280;3045;43.226;27.858;2023-02-01T01:23:55;147004.09;;;3.78;100.00
6034;BME280;3045;43.226;27.858;2023-02-01T01:26:24;147002.84;;;3.77;100.00
6034;BME280;3045;43.226;27.858;2023-02-01T01:28:54;146977.69;;;3.67;100.00
6034;BME280;3045;43.226;27.858;2023-02-01T01:31:22;146884.72;;;3.30;100.00
6034;BME280;3045;43.226;27.858;2023-02-01T01:33:50;146924.91;;;3.46;100.00
6034;BME280;3045;43.226;27.858;2023-02-01T01:36:17;146952.53;;;3.57;100.00
6034;BME280;3045;43.226;27.858;2023-02-01T01:38:44;146940.00;;;3.52;100.00
6034;BME280;3045;43.226;27.858;2023-02-01T01:41:14;146952.53;;;3.57;100.00
6034;BME280;3045;43.226;27.858;2023-02-01T01:43:48;146961.38;;;3.60;100.00
6034;BME280;3045;43.226;27.858;2023-02-01T01:46:18;146918.66;;;3.43;100.00
6034;BME280;3045;43.226;27.858;2023-02-01T01:48:46;146940.00;;;3.52;100.00
6034;BME280;3045;43.226;27.858;2023-02-01T01:51:17;146929.97;;;3.48;100.00
6034;BME280;3045;43.226;27.858;2023-02-01T01:53:53;146945.00;;;3.54;100.00
6034;BME280;3045;43.226;27.858;2023-02-01T01:56:22;146975.16;;;3.66;100.00
6034;BME280;3045;43.226;27.858;2023-02-01T01:58:49;146994.00;;;3.74;100.00
6034;BME280;3045;43.226;27.858;2023-02-01T02:01:18;146982.75;;;3.69;100.00
6034;BME280;3045;43.226;27.858;2023-02-01T02:03:46;146948.81;;;3.55;100.00
6034;BME280;3045;43.226;27.858;2023-02-01T02:06:21;146926.19;;;3.46;100.00
6034;BME280;3045;43.226;27.858;2023-02-01T02:08:52;146919.88;;;3.44;100.00
6034;BME280;3045;43.226;27.858;2023-02-01T02:11:19;146947.53;;;3.55;100.00
6034;BME280;3045;43.226;27.858;2023-02-01T02:13:48;146991.53;;;3.73;100.00
6034;BME280;3045;43.226;27.858;2023-02-01T02:16:46;146975.16;;;3.66;100.00
6034;BME280;3045;43.226;27.858;2023-02-01T02:22:49;146952.53;;;3.57;100.00
6034;BME280;3045;43.226;27.858;2023-02-01T02:28:49;147021.69;;;3.85;100.00
6034;BME280;3045;43.226;27.858;2023-02-01T02:31:39;147021.69;;;3.85;100.00
6034;BME280;3045;43.226;27.858;2023-02-01T02:34:16;147022.94;;;3.85;100.00
6034;BME280;3045;43.226;27.858;2023-02-01T02:36:54;146997.78;;;3.75;100.00
6034;BME280;3045;43.226;27.858;2023-02-01T02:39:29;147030.47;;;3.88;100.00
6034;BME280;3045;43.226;27.858;2023-02-01T02:42:05;147022.94;;;3.85;100.00
6034;BME280;3045;43.226;27.858;2023-02-01T02:44:55;147027.97;;;3.87;100.00
6034;BME280;3045;43.226;27.858;2023-02-01T02:47:45;146994.00;;;3.74;100.00
6034;BME280;3045;43.226;27.858;2023-02-01T02:50:24;147044.31;;;3.94;100.00
6034;BME280;3045;43.226;27.858;2023-02-01T02:53:15;147046.81;;;3.95;100.00
6034;BME280;3045;43.226;27.858;2023-02-01T02:56:00;147068.16;;;4.03;100.00
6034;BME280;3045;43.226;27.858;2023-02-01T02:58:48;147073.22;;;4.05;100.00
6034;BME280;3045;43.226;27.858;2023-02-01T03:01:34;147036.75;;;3.91;100.00
6034;BME280;3045;43.226;27.858;2023-02-01T03:04:18;147061.91;;;4.01;100.00
6034;BME280;3045;43.226;27.858;2023-02-01T03:06:47;146967.63;;;3.63;100.00
6034;BME280;3045;43.226;27.858;2023-02-01T03:09:19;147063.16;;;4.01;100.00
6034;BME280;3045;43.226;27.858;2023-02-01T03:11:52;147048.06;;;3.95;100.00
6034;BME280;3045;43.226;27.858;2023-02-01T03:14:41;147045.59;;;3.94;100.00
6034;BME280;3045;43.226;27.858;2023-02-01T03:17:13;147088.34;;;4.11;100.00
6034;BME280;3045;43.226;27.858;2023-02-01T03:19:43;147056.84;;;3.99;100.00
6034;BME280;3045;43.226;27.858;2023-02-01T03:22:18;147051.84;;;3.97;100.00
6034;BME280;3045;43.226;27.858;2023-02-01T03:24:49;147025.44;;;3.86;100.00
6034;BME280;3045;43.226;27.858;2023-02-01T03:27:21;146980.22;;;3.68;100.00
6034;BME280;3045;43.226;27.858;2023-02-01T03:29:52;146978.97;;;3.67;100.00
6034;BME280;3045;43.226;27.858;2023-02-01T03:32:22;146961.38;;;3.60;100.00
6034;BME280;3045;43.226;27.858;2023-02-01T03:34:50;146879.66;;;3.28;100.00
6034;BME280;3045;43.226;27.858;2023-02-01T03:37:23;146911.09;;;3.40;100.00
6034;BME280;3045;43.226;27.858;2023-02-01T03:39:54;146945.00;;;3.54;100.00
6034;BME280;3045;43.226;27.858;2023-02-01T03:42:28;146947.53;;;3.55;100.00
6034;BME280;3045;43.226;27.858;2023-02-01T03:45:01;146948.81;;;3.55;100.00
6034;BME280;3045;43.226;27.858;2023-02-01T03:47:34;146907.34;;;3.39;100.00
6034;BME280;3045;43.226;27.858;2023-02-01T03:50:04;146870.88;;;3.24;100.00
6034;BME280;3045;43.226;27.858;2023-02-01T03:52:37;146864.63;;;3.21;100.00
6034;BME280;3045;43.226;27.858;2023-02-01T03:55:07;146839.47;;;3.11;100.00
6034;BME280;3045;43.226;27.858;2023-02-01T03:57:38;146819.38;;;3.03;100.00
6034;BME280;3045;43.226;27.858;2023-02-01T04:00:09;146737.78;;;2.70;100.00
6034;BME280;3045;43.226;27.858;2023-02-01T04:02:37;144526.84;;;2.75;100.00
6034;BME280;3045;43.226;27.858;2023-02-01T04:05:04;141347.19;;;2.87;100.00
6034;BME280;3045;43.226;27.858;2023-02-01T04:07:32;136671.28;;;2.81;100.00
6034;BME280;3045;43.226;27.858;2023-02-01T04:09:59;133002.06;;;2.84;100.00
6034;BME280;3045;43.226;27.858;2023-02-01T04:12:26;134492.59;;;2.75;100.00
6034;BME280;3045;43.226;27.858;2023-02-01T04:14:53;142527.97;;;2.87;100.00
6034;BME280;3045;43.226;27.858;2023-02-01T04:17:20;146784.06;;;2.92;100.00
6034;BME280;3045;43.226;27.858;2023-02-01T04:19:47;146736.50;;;2.70;100.00
6034;BME280;3045;43.226;27.858;2023-02-01T04:22:14;146013.13;;;2.59;100.00
6034;BME280;3045;43.226;27.858;2023-02-01T04:24:42;123697.06;;;2.39;100.00
6034;BME280;3045;43.226;27.858;2023-02-01T04:27:09;116177.19;;;2.35;100.00
6034;BME280;3045;43.226;27.858;2023-02-01T04:29:36;105050.69;;;2.07;100.00
6034;BME280;3045;43.226;27.858;2023-02-01T04:32:03;96298.19;;;2.15;100.00
6034;BME280;3045;43.226;27.858;2023-02-01T04:34:30;94024.59;;;2.13;100.00
6034;BME280;3045;43.226;27.858;2023-02-01T04:36:57;87869.94;;;2.11;100.00
6034;BME280;3045;43.226;27.858;2023-02-01T04:39:24;85284.97;;;2.13;100.00
6034;BME280;3045;43.226;27.858;2023-02-01T04:41:52;85603.84;;;2.10;100.00
6034;BME280;3045;43.226;27.858;2023-02-01T04:44:19;87546.44;;;2.11;100.00
6034;BME280;3045;43.226;27.858;2023-02-01T04:46:46;83992.81;;;2.13;100.00
6034;BME280;3045;43.226;27.858;2023-02-01T04:49:14;79798.41;;;2.16;100.00
6034;BME280;3045;43.226;27.858;2023-02-01T04:51:42;78488.53;;;2.02;100.00
6034;BME280;3045;43.226;27.858;2023-02-01T04:54:09;79482.47;;;2.21;100.00
6034;BME280;3045;43.226;27.858;2023-02-01T04:56:37;80453.03;;;2.23;100.00
6034;BME280;3045;43.226;27.858;2023-02-01T04:59:05;79790.84;;;2.11;100.00
6034;BME280;3045;43.226;27.858;2023-02-01T05:01:32;78459.44;;;1.80;100.00
6034;BME280;3045;43.226;27.858;2023-02-01T05:03:59;78190.25;;;2.20;100.00
6034;BME280;3045;43.226;27.858;2023-02-01T05:06:26;77498.16;;;1.85;100.00
6034;BME280;3045;43.226;27.858;2023-02-01T05:08:53;73991.91;;;2.15;100.00
6034;BME280;3045;43.226;27.858;2023-02-01T05:11:20;74315.44;;;2.16;100.00
6034;BME280;3045;43.226;27.858;2023-02-01T05:14:06;76585.94;;;2.27;100.00
6034;BME280;3045;43.226;27.858;2023-02-01T05:16:33;79491.41;;;2.28;100.00
6034;BME280;3045;43.226;27.858;2023-02-01T05:19:00;80798.91;;;2.40;100.00
6034;BME280;3045;43.226;27.858;2023-02-01T05:21:27;87584.09;;;2.37;100.00
6034;BME280;3045;43.226;27.858;2023-02-01T05:23:53;93100.44;;;2.43;100.00
6034;BME280;3045;43.226;27.858;2023-02-01T05:26:36;100245.59;;;2.47;100.00
6034;BME280;3045;43.226;27.858;2023-02-01T05:29:03;106097.94;;;2.47;100.00
6034;BME280;3045;43.226;27.858;2023-02-01T05:31:32;110272.16;;;2.15;100.00
6034;BME280;3045;43.226;27.858;2023-02-01T05:33:58;111916.03;;;2.23;100.00
6034;BME280;3045;43.226;27.858;2023-02-01T05:36:25;115826.09;;;2.22;100.00
6034;BME280;3045;43.226;27.858;2023-02-01T05:38:52;120762.56;;;2.42;100.00
6034;BME280;3045;43.226;27.858;2023-02-01T05:41:19;124423.53;;;2.37;100.00
6034;BME280;3045;43.226;27.858;2023-02-01T05:43:46;124898.94;;;2.27;100.00
6034;BME280;3045;43.226;27.858;2023-02-01T05:46:13;119441.50;;;2.35;100.00
6034;BME280;3045;43.226;27.858;2023-02-01T05:48:42;116472.53;;;2.19;100.00
6034;BME280;3045;43.226;27.858;2023-02-01T05:51:10;117461.44;;;2.24;100.00
6034;BME280;3045;43.226;27.858;2023-02-01T05:53:37;121029.16;;;2.13;100.00
6034;BME280;3045;43.226;27.858;2023-02-01T05:56:05;118404.06;;;2.06;100.00
6034;BME280;3045;43.226;27.858;2023-02-01T05:58:32;111894.91;;;2.12;100.00
6034;BME280;3045;43.226;27.858;2023-02-01T06:00:59;110617.69;;;2.26;100.00
6034;BME280;3045;43.226;27.858;2023-02-01T06:03:26;113537.75;;;2.19;100.00
6034;BME280;3045;43.226;27.858;2023-02-01T06:05:55;111594.03;;;2.25;100.00
6034;BME280;3045;43.226;27.858;2023-02-01T06:08:22;110608.22;;;2.21;100.00
6034;BME280;3045;43.226;27.858;2023-02-01T06:10:51;108318.00;;;2.15;100.00
6034;BME280;3045;43.226;27.858;2023-02-01T06:13:18;100225.81;;;2.35;100.00
6034;BME280;3045;43.226;27.858;2023-02-01T06:15:45;95749.84;;;2.77;100.00
6034;BME280;3045;43.226;27.858;2023-02-01T06:18:12;101686.47;;;3.29;100.00
6034;BME280;3045;43.226;27.858;2023-02-01T06:20:41;146912.34;;;3.41;100.00
6034;BME280;3045;43.226;27.858;2023-02-01T06:23:09;146924.91;;;3.46;100.00
6034;BME280;3045;43.226;27.858;2023-02-01T06:25:36;146972.66;;;3.65;100.00
6034;BME280;3045;43.226;27.858;2023-02-01T06:28:03;146987.75;;;3.71;100.00
6034;BME280;3045;43.226;27.858;2023-02-01T06:30:31;146965.13;;;3.62;100.00
6034;BME280;3045;43.226;27.858;2023-02-01T06:32:58;146947.53;;;3.55;100.00
6034;BME280;3045;43.226;27.858;2023-02-01T06:35:25;146926.19;;;3.46;100.00
6034;BME280;3045;43.226;27.858;2023-02-01T06:37:52;146903.56;;;3.37;100.00
6034;BME280;3045;43.226;27.858;2023-02-01T06:40:20;146890.97;;;3.32;100.00
6034;BME280;3045;43.226;27.858;2023-02-01T06:42:48;146934.97;;;3.50;100.00
6034;BME280;3045;43.226;27.858;2023-02-01T06:45:15;147044.31;;;3.94;100.00
6034;BME280;3045;43.226;27.858;2023-02-01T06:47:42;147205.22;;;4.58;100.00
6034;BME280;3045;43.226;27.858;2023-02-01T06:50:10;147329.81;;;5.09;100.00
6034;BME280;3045;43.226;27.858;2023-02-01T06:52:38;147336.09;;;5.11;100.00
6034;BME280;3045;43.226;27.858;2023-02-01T06:55:06;147318.50;;;5.04;100.00
6034;BME280;3045;43.226;27.858;2023-02-01T06:57:34;147226.63;;;4.67;100.00
6034;BME280;3045;43.226;27.858;2023-02-01T07:00:03;147209.03;;;4.60;100.00
6034;BME280;3045;43.226;27.858;2023-02-01T07:02:30;147211.56;;;4.61;100.00
6034;BME280;3045;43.226;27.858;2023-02-01T07:04:57;147201.50;;;4.57;100.00
6034;BME280;3045;43.226;27.858;2023-02-01T07:07:24;147166.25;;;4.43;100.00
6034;BME280;3045;43.226;27.858;2023-02-01T07:09:51;147181.38;;;4.49;100.00
6034;BME280;3045;43.226;27.858;2023-02-01T07:12:19;147066.97;;;4.03;100.00
6034;BME280;3045;43.226;27.858;2023-02-01T07:14:47;147172.56;;;4.45;100.00
6034;BME280;3045;43.226;27.858;2023-02-01T07:17:14;147205.22;;;4.58;100.00
6034;BME280;3045;43.226;27.858;2023-02-01T07:19:41;147396.47;;;5.35;100.00
6034;BME280;3045;43.226;27.858;2023-02-01T07:22:08;147652.13;;;6.38;100.00
6034;BME280;3045;43.226;27.858;2023-02-01T07:24:35;147814.69;;;7.03;100.00
6034;BME280;3045;43.226;27.858;2023-02-01T07:27:02;147981.09;;;7.70;100.00
6034;BME280;3045;43.226;27.858;2023-02-01T07:29:29;148100.94;;;8.18;100.00
6034;BME280;3045;43.226;27.858;2023-02-01T07:31:57;148220.81;;;8.66;100.00
6034;BME280;3045;43.226;27.858;2023-02-01T07:34:25;148319.28;;;9.05;100.00
6034;BME280;3045;43.226;27.858;2023-02-01T07:36:52;148267.56;;;8.85;100.00
6034;BME280;3045;43.226;27.858;2023-02-01T07:39:19;148391.25;;;9.34;100.00
6034;BME280;3045;43.226;27.858;2023-02-01T07:41:46;148464.50;;;9.63;100.00
6034;BME280;3045;43.226;27.858;2023-02-01T07:44:13;148530.19;;;9.90;100.00
6034;BME280;3045;43.226;27.858;2023-02-01T07:46:40;148587.06;;;10.13;100.00
6034;BME280;3045;43.226;27.858;2023-02-01T07:49:10;148482.22;;;9.71;100.00
6034;BME280;3045;43.226;27.858;2023-02-01T07:51:42;148309.19;;;9.01;100.00
6034;BME280;3045;43.226;27.858;2023-02-01T07:54:09;148295.31;;;8.96;100.00
6034;BME280;3045;43.226;27.858;2023-02-01T07:56:36;148515.06;;;9.84;100.00
6034;BME280;3045;43.226;27.858;2023-02-01T07:59:03;148669.25;;;10.45;100.00
6034;BME280;3045;43.226;27.858;2023-02-01T08:01:31;148748.91;;;10.77;100.00
6034;BME280;3045;43.226;27.858;2023-02-01T08:04:00;148646.50;;;10.36;100.00
6034;BME280;3045;43.226;27.858;2023-02-01T08:06:30;148719.81;;;10.66;100.00
6034;BME280;3045;43.226;27.858;2023-02-01T08:08:58;148402.63;;;9.39;100.00
6034;BME280;3045;43.226;27.858;2023-02-01T08:11:25;148453.13;;;9.59;100.00
6034;BME280;3045;43.226;27.858;2023-02-01T08:13:52;148574.44;;;10.07;100.00
6034;BME280;3045;43.226;27.858;2023-02-01T08:16:22;148712.22;;;10.63;100.00
6034;BME280;3045;43.226;27.858;2023-02-01T08:18:49;148738.81;;;10.73;100.00
6034;BME280;3045;43.226;27.858;2023-02-01T08:21:18;148810.88;;;11.02;100.00
6034;BME280;3045;43.226;27.858;2023-02-01T08:23:47;148929.75;;;11.50;100.00
6034;BME280;3045;43.226;27.858;2023-02-01T08:26:19;148912.00;;;11.42;100.00
6034;BME280;3045;43.226;27.858;2023-02-01T08:28:48;148880.41;;;11.30;100.00
6034;BME280;3045;43.226;27.858;2023-02-01T08:31:18;149015.78;;;11.84;96.14
6034;BME280;3045;43.226;27.858;2023-02-01T08:33:50;149236.06;;;12.72;89.42
6034;BME280;3045;43.226;27.858;2023-02-01T08:36:17;149271.50;;;12.86;85.51
6034;BME280;3045;43.226;27.858;2023-02-01T08:38:44;149200.59;;;12.58;85.82
6034;BME280;3045;43.226;27.858;2023-02-01T08:41:15;149323.44;;;13.07;78.06
6034;BME280;3045;43.226;27.858;2023-02-01T08:43:46;149223.41;;;12.67;83.32
6034;BME280;3045;43.226;27.858;2023-02-01T08:46:13;149208.19;;;12.61;85.01
6034;BME280;3045;43.226;27.858;2023-02-01T08:48:40;148919.63;;;11.45;95.41
6034;BME280;3045;43.226;27.858;2023-02-01T08:51:09;148699.59;;;10.58;100.00
6034;BME280;3045;43.226;27.858;2023-02-01T08:53:37;148464.50;;;9.63;100.00
6034;BME280;3045;43.226;27.858;2023-02-01T08:56:05;148424.09;;;9.47;100.00
6034;BME280;3045;43.226;27.858;2023-02-01T08:58:34;148275.09;;;8.88;100.00
6034;BME280;3045;43.226;27.858;2023-02-01T09:01:03;148450.66;;;9.58;100.00
6034;BME280;3045;43.226;27.858;2023-02-01T09:03:32;148570.63;;;10.06;100.00
6034;BME280;3045;43.226;27.858;2023-02-01T09:06:00;148638.94;;;10.33;100.00
6034;BME280;3045;43.226;27.858;2023-02-01T09:08:27;148668.00;;;10.45;100.00
6034;BME280;3045;43.226;27.858;2023-02-01T09:10:58;148805.78;;;11.00;100.00
6034;BME280;3045;43.226;27.858;2023-02-01T09:13:25;148731.19;;;10.70;100.00
6034;BME280;3045;43.226;27.858;2023-02-01T09:15:54;148727.44;;;10.69;100.00
6034;BME280;3045;43.226;27.858;2023-02-01T09:18:21;148823.50;;;11.07;100.00
6034;BME280;3045;43.226;27.858;2023-02-01T09:20:47;148947.44;;;11.57;100.00
6034;BME280;3045;43.226;27.858;2023-02-01T09:23:14;149156.28;;;12.40;91.78
6034;BME280;3045;43.226;27.858;2023-02-01T09:25:41;149166.41;;;12.44;86.58
6034;BME280;3045;43.226;27.858;2023-02-01T09:28:10;149519.84;;;13.85;77.72
6034;BME280;3045;43.226;27.858;2023-02-01T09:30:38;149828.00;;;15.08;66.65
6034;BME280;3045;43.226;27.858;2023-02-01T09:33:08;149698.63;;;14.56;67.51
6034;BME280;3045;43.226;27.858;2023-02-01T09:35:35;149994.25;;;15.74;61.01
6034;BME280;3045;43.226;27.858;2023-02-01T09:38:03;150075.50;;;16.07;58.69
6034;BME280;3045;43.226;27.858;2023-02-01T09:40:30;149951.13;;;15.57;60.37
6034;BME280;3045;43.226;27.858;2023-02-01T09:43:15;150114.84;;;16.22;58.90
6034;BME280;3045;43.226;27.858;2023-02-01T09:45:49;150043.78;;;15.94;57.77
6034;BME280;3045;43.226;27.858;2023-02-01T09:48:21;150375.28;;;17.26;54.91
6034;BME280;3045;43.226;27.858;2023-02-01T09:50:55;150276.19;;;16.86;53.61
6034;BME280;3045;43.226;27.858;2023-02-01T09:53:25;150291.44;;;16.93;54.03
6034;BME280;3045;43.226;27.858;2023-02-01T09:55:55;150365.13;;;17.22;53.50
6034;BME280;3045;43.226;27.858;2023-02-01T09:58:29;150305.38;;;16.98;51.65
6034;BME280;3045;43.226;27.858;2023-02-01T10:01:00;150386.72;;;17.30;51.13
6034;BME280;3045;43.226;27.858;2023-02-01T10:03:31;150478.25;;;17.67;49.54
6034;BME280;3045;43.226;27.858;2023-02-01T10:09:15;149560.41;;;14.01;59.66
6034;BME280;3045;43.226;27.858;2023-02-01T10:11:59;149342.50;;;13.14;68.19
6034;BME280;3045;43.226;27.858;2023-02-01T10:14:46;149304.41;;;12.99;72.24
6034;BME280;3045;43.226;27.858;2023-02-01T10:17:31;149461.59;;;13.62;69.17
6034;BME280;3045;43.226;27.858;2023-02-01T10:20:12;149746.84;;;14.76;63.20
6034;BME280;3045;43.226;27.858;2023-02-01T10:22:46;150326.97;;;17.07;55.95
6034;BME280;3045;43.226;27.858;2023-02-01T10:25:18;150311.75;;;17.01;53.65
6034;BME280;3045;43.226;27.858;2023-02-01T10:27:49;149976.50;;;15.67;56.07
6034;BME280;3045;43.226;27.858;2023-02-01T10:30:19;149841.97;;;15.14;60.24
6034;BME280;3045;43.226;27.858;2023-02-01T10:32:48;149984.09;;;15.70;57.18
6034;BME280;3045;43.226;27.858;2023-02-01T10:35:21;149616.19;;;14.24;60.17
6034;BME280;3045;43.226;27.858;2023-02-01T10:37:52;149469.19;;;13.65;64.15
6034;BME280;3045;43.226;27.858;2023-02-01T10:40:21;149480.59;;;13.69;66.17
6034;BME280;3045;43.226;27.858;2023-02-01T10:42:49;149847.00;;;15.16;58.30
6034;BME280;3045;43.226;27.858;2023-02-01T10:45:19;149951.13;;;15.57;54.31
6034;BME280;3045;43.226;27.858;2023-02-01T10:47:49;149664.38;;;14.43;56.40
6034;BME280;3045;43.226;27.858;2023-02-01T10:50:29;149474.22;;;13.67;61.01
6034;BME280;3045;43.226;27.858;2023-02-01T10:53:03;149243.66;;;12.75;66.85
6034;BME280;3045;43.226;27.858;2023-02-01T10:55:36;149395.69;;;13.36;70.10
6034;BME280;3045;43.226;27.858;2023-02-01T10:58:05;149483.13;;;13.70;66.45
6034;BME280;3045;43.226;27.858;2023-02-01T11:00:39;149598.44;;;14.16;62.64
6034;BME280;3045;43.226;27.858;2023-02-01T11:03:32;149654.25;;;14.39;63.71
6034;BME280;3045;43.226;27.858;2023-02-01T11:06:01;149924.41;;;15.46;59.12
6034;BME280;3045;43.226;27.858;2023-02-01T11:08:29;150075.50;;;16.07;55.51
6034;BME280;3045;43.226;27.858;2023-02-01T11:10:58;149975.22;;;15.67;56.23
6034;BME280;3045;43.226;27.858;2023-02-01T11:13:29;149734.16;;;14.71;57.93
6034;BME280;3045;43.226;27.858;2023-02-01T11:15:59;149464.09;;;13.63;60.66
6034;BME280;3045;43.226;27.858;2023-02-01T11:18:30;149137.31;;;12.32;68.62
6034;BME280;3045;43.226;27.858;2023-02-01T11:20:58;149175.25;;;12.48;71.47
6034;BME280;3045;43.226;27.858;2023-02-01T11:23:29;149129.72;;;12.29;72.64
6034;BME280;3045;43.226;27.858;2023-02-01T11:26:00;148925.94;;;11.48;77.44
6034;BME280;3045;43.226;27.858;2023-02-01T11:28:31;148756.50;;;10.80;79.86
6034;BME280;3045;43.226;27.858;2023-02-01T11:31:00;148752.69;;;10.79;84.42
6034;BME280;3045;43.226;27.858;2023-02-01T11:33:30;148726.16;;;10.68;84.13
6034;BME280;3045;43.226;27.858;2023-02-01T11:36:01;148649.03;;;10.37;87.93
6034;BME280;3045;43.226;27.858;2023-02-01T11:38:35;148611.16;;;10.22;91.53
6034;BME280;3045;43.226;27.858;2023-02-01T11:41:12;148502.44;;;9.79;94.21
6034;BME280;3045;43.226;27.858;2023-02-01T11:43:54;148593.41;;;10.15;93.02
6034;BME280;3045;43.226;27.858;2023-02-01T11:46:28;148595.97;;;10.16;93.46
6034;BME280;3045;43.226;27.858;2023-02-01T11:48:57;148598.50;;;10.17;94.12
6034;BME280;3045;43.226;27.858;2023-02-01T11:51:46;148627.56;;;10.29;95.36
6034;BME280;3045;43.226;27.858;2023-02-01T11:54:29;148621.25;;;10.26;95.22
6034;BME280;3045;43.226;27.858;2023-02-01T11:57:12;148555.50;;;10.00;95.63
6034;BME280;3045;43.226;27.858;2023-02-01T12:00:02;148503.69;;;9.79;96.86
6034;BME280;3045;43.226;27.858;2023-02-01T12:02:56;148497.34;;;9.77;96.18
6034;BME280;3045;43.226;27.858;2023-02-01T12:05:29;148446.84;;;9.56;100.00
6034;BME280;3045;43.226;27.858;2023-02-01T12:08:18;148441.81;;;9.54;100.00
6034;BME280;3045;43.226;27.858;2023-02-01T12:10:58;148383.69;;;9.31;100.00
6034;BME280;3045;43.226;27.858;2023-02-01T12:13:41;148347.06;;;9.16;100.00
6034;BME280;3045;43.226;27.858;2023-02-01T12:16:27;148292.81;;;8.95;100.00
6034;BME280;3045;43.226;27.858;2023-02-01T12:19:17;148282.72;;;8.91;100.00
6034;BME280;3045;43.226;27.858;2023-02-01T12:22:00;148246.09;;;8.76;100.00
6034;BME280;3045;43.226;27.858;2023-02-01T12:24:45;148262.47;;;8.83;100.00
6034;BME280;3045;43.226;27.858;2023-02-01T12:27:33;148286.47;;;8.92;100.00
6034;BME280;3045;43.226;27.858;2023-02-01T12:30:18;148252.38;;;8.79;100.00
6034;BME280;3045;43.226;27.858;2023-02-01T12:32:56;148286.47;;;8.92;100.00
6034;BME280;3045;43.226;27.858;2023-02-01T12:35:41;148285.22;;;8.92;100.00
6034;BME280;3045;43.226;27.858;2023-02-01T12:38:20;148285.22;;;8.92;100.00
6034;BME280;3045;43.226;27.858;2023-02-01T12:41:02;148306.66;;;9.00;100.00
6034;BME280;3045;43.226;27.858;2023-02-01T12:43:39;148320.56;;;9.06;100.00
6034;BME280;3045;43.226;27.858;2023-02-01T12:46:12;148302.91;;;8.99;100.00
6034;BME280;3045;43.226;27.858;2023-02-01T12:48:49;148304.19;;;8.99;100.00
6034;BME280;3045;43.226;27.858;2023-02-01T12:51:19;148267.56;;;8.85;100.00
6034;BME280;3045;43.226;27.858;2023-02-01T12:53:55;148249.91;;;8.78;100.00
6034;BME280;3045;43.226;27.858;2023-02-01T12:56:23;148234.72;;;8.71;100.00
6034;BME280;3045;43.226;27.858;2023-02-01T12:58:57;148237.25;;;8.73;100.00
6034;BME280;3045;43.226;27.858;2023-02-01T13:01:32;148249.91;;;8.78;100.00
6034;BME280;3045;43.226;27.858;2023-02-01T13:04:05;148234.72;;;8.71;100.00
6034;BME280;3045;43.226;27.858;2023-02-01T13:06:42;148233.47;;;8.71;100.00
6034;BME280;3045;43.226;27.858;2023-02-01T13:09:20;148233.47;;;8.71;100.00
6034;BME280;3045;43.226;27.858;2023-02-01T13:11:51;148252.38;;;8.79;100.00
6034;BME280;3045;43.226;27.858;2023-02-01T13:14:27;148262.47;;;8.83;100.00
6034;BME280;3045;43.226;27.858;2023-02-01T13:17:00;148262.47;;;8.83;100.00
6034;BME280;3045;43.226;27.858;2023-02-01T13:19:40;148272.63;;;8.87;100.00
6034;BME280;3045;43.226;27.858;2023-02-01T13:22:12;148282.72;;;8.91;100.00
6034;BME280;3045;43.226;27.858;2023-02-01T13:24:42;148281.44;;;8.90;100.00
6034;BME280;3045;43.226;27.858;2023-02-01T13:27:11;148283.94;;;8.91;100.00
6034;BME280;3045;43.226;27.858;2023-02-01T13:29:46;148265.00;;;8.84;100.00